sensor_id;sensor_type;location;lat;lon;timestamp;P1;durP1;ratioP1;P2;durP2;ratioP2
10343;SDS011;5217;43.960;10.954;2023-03-01T00:01:46;11.53;;;10.63;;
10343;SDS011;5217;43.960;10.954;2023-03-01T00:04:16;11.37;;;10.27;;
10343;SDS011;5217;43.960;10.954;2023-03-01T00:06:44;11.13;;;10.23;;
10343;SDS011;5217;43.960;10.954;2023-03-01T00:09:13;11.20;;;10.30;;
10343;SDS011;5217;43.960;10.954;2023-03-01T00:11:43;11.03;;;10.10;;
10343;SDS011;5217;43.960;10.954;2023-03-01T00:14:11;11.23;;;10.23;;
10343;SDS011;5217;43.960;10.954;2023-03-01T00:16:41;12.23;;;11.23;;
10343;SDS011;5217;43.960;10.954;2023-03-01T00:19:12;13.97;;;12.77;;
10343;SDS011;5217;43.960;10.954;2023-03-01T00:21:44;12.77;;;11.57;;
10343;SDS011;5217;43.960;10.954;2023-03-01T00:24:12;13.73;;;12.50;;
10343;SDS011;5217;43.960;10.954;2023-03-01T00:26:41;13.27;;;12.00;;
10343;SDS011;5217;43.960;10.954;2023-03-01T00:29:09;13.27;;;11.97;;
10343;SDS011;5217;43.960;10.954;2023-03-01T00:31:37;13.37;;;12.20;;
10343;SDS011;5217;43.960;10.954;2023-03-01T00:34:06;13.33;;;12.07;;
10343;SDS011;5217;43.960;10.954;2023-03-01T00:36:35;13.90;;;12.70;;
10343;SDS011;5217;43.960;10.954;2023-03-01T00:39:07;13.57;;;12.37;;
10343;SDS011;5217;43.960;10.954;2023-03-01T00:41:38;14.20;;;13.00;;
10343;SDS011;5217;43.960;10.954;2023-03-01T00:44:07;14.70;;;13.40;;
10343;SDS011;5217;43.960;10.954;2023-03-01T00:46:36;14.43;;;13.23;;
10343;SDS011;5217;43.960;10.954;2023-03-01T00:49:04;14.40;;;13.10;;
10343;SDS011;5217;43.960;10.954;2023-03-01T00:51:32;13.10;;;12.00;;
10343;SDS011;5217;43.960;10.954;2023-03-01T00:54:01;14.13;;;12.70;;
10343;SDS011;5217;43.960;10.954;2023-03-01T00:56:31;13.33;;;12.13;;
10343;SDS011;5217;43.960;10.954;2023-03-01T00:59:00;13.00;;;11.87;;
10343;SDS011;5217;43.960;10.954;2023-03-01T01:01:29;12.77;;;11.67;;
10343;SDS011;5217;43.960;10.954;2023-03-01T01:03:59;12.27;;;11.27;;
10343;SDS011;5217;43.960;10.954;2023-03-01T01:06:29;11.47;;;10.47;;
10343;SDS011;5217;43.960;10.954;2023-03-01T01:08:59;13.10;;;12.00;;
10343;SDS011;5217;43.960;10.954;2023-03-01T01:11:28;12.10;;;11.10;;
10343;SDS011;5217;43.960;10.954;2023-03-01T01:13:59;11.10;;;10.20;;
10343;SDS011;5217;43.960;10.954;2023-03-01T01:16:28;10.87;;;9.97;;
10343;SDS011;5217;43.960;10.954;2023-03-01T01:18:57;11.27;;;10.27;;
10343;SDS011;5217;43.960;10.954;2023-03-01T01:21:25;10.00;;;9.20;;
10343;SDS011;5217;43.960;10.954;2023-03-01T01:23:54;9.90;;;9.10;;
10343;SDS011;5217;43.960;10.954;2023-03-01T01:26:25;8.90;;;8.20;;
10343;SDS011;5217;43.960;10.954;2023-03-01T01:28:55;8.77;;;7.97;;
10343;SDS011;5217;43.960;10.954;2023-03-01T01:31:25;7.70;;;7.10;;
10343;SDS011;5217;43.960;10.954;2023-03-01T01:33:55;7.47;;;6.87;;
10343;SDS011;5217;43.960;10.954;2023-03-01T01:36:24;7.30;;;6.70;;
10343;SDS011;5217;43.960;10.954;2023-03-01T01:38:52;7.17;;;6.57;;
10343;SDS011;5217;43.960;10.954;2023-03-01T01:41:21;7.10;;;6.60;;
10343;SDS011;5217;43.960;10.954;2023-03-01T01:46:43;7.13;;;6.63;;
10343;SDS011;5217;43.960;10.954;2023-03-01T01:49:20;7.33;;;6.70;;
10343;SDS011;5217;43.960;10.954;2023-03-01T01:51:54;7.50;;;6.90;;
10343;SDS011;5217;43.960;10.954;2023-03-01T01:54:27;7.27;;;6.67;;
10343;SDS011;5217;43.960;10.954;2023-03-01T01:57:02;7.60;;;6.97;;
10343;SDS011;5217;43.960;10.954;2023-03-01T01:59:33;7.30;;;6.70;;
10343;SDS011;5217;43.960;10.954;2023-03-01T02:02:03;7.70;;;7.10;;
10343;SDS011;5217;43.960;10.954;2023-03-01T02:04:32;7.83;;;7.23;;
10343;SDS011;5217;43.960;10.954;2023-03-01T02:07:01;8.30;;;7.70;;
10343;SDS011;5217;43.960;10.954;2023-03-01T02:09:36;8.07;;;7.37;;
10343;SDS011;5217;43.960;10.954;2023-03-01T02:12:05;8.10;;;7.40;;
10343;SDS011;5217;43.960;10.954;2023-03-01T02:14:33;8.83;;;8.13;;
10343;SDS011;5217;43.960;10.954;2023-03-01T02:17:02;7.80;;;7.20;;
10343;SDS011;5217;43.960;10.954;2023-03-01T02:19:35;7.27;;;6.77;;
10343;SDS011;5217;43.960;10.954;2023-03-01T02:22:13;7.63;;;7.03;;
10343;SDS011;5217;43.960;10.954;2023-03-01T02:24:48;6.40;;;5.90;;
10343;SDS011;5217;43.960;10.954;2023-03-01T02:27:27;6.47;;;5.97;;
10343;SDS011;5217;43.960;10.954;2023-03-01T02:30:06;6.70;;;6.10;;
10343;SDS011;5217;43.960;10.954;2023-03-01T02:32:39;6.10;;;5.70;;
10343;SDS011;5217;43.960;10.954;2023-03-01T02:35:09;5.80;;;5.40;;
10343;SDS011;5217;43.960;10.954;2023-03-01T02:37:40;5.10;;;4.70;;
10343;SDS011;5217;43.960;10.954;2023-03-01T02:40:10;5.07;;;4.67;;
10343;SDS011;5217;43.960;10.954;2023-03-01T02:42:45;4.83;;;4.43;;
10343;SDS011;5217;43.960;10.954;2023-03-01T02:45:18;4.40;;;4.10;;
10343;SDS011;5217;43.960;10.954;2023-03-01T02:47:47;4.43;;;4.13;;
10343;SDS011;5217;43.960;10.954;2023-03-01T02:50:21;3.60;;;3.40;;
10343;SDS011;5217;43.960;10.954;2023-03-01T02:53:04;3.57;;;3.33;;
10343;SDS011;5217;43.960;10.954;2023-03-01T02:55:38;3.40;;;3.20;;
10343;SDS011;5217;43.960;10.954;2023-03-01T02:58:07;3.20;;;3.00;;
10343;SDS011;5217;43.960;10.954;2023-03-01T03:00:37;2.97;;;2.77;;
10343;SDS011;5217;43.960;10.954;2023-03-01T03:03:12;2.83;;;2.63;;
10343;SDS011;5217;43.960;10.954;2023-03-01T03:05:41;2.60;;;2.40;;
10343;SDS011;5217;43.960;10.954;2023-03-01T03:08:10;2.30;;;2.20;;
10343;SDS011;5217;43.960;10.954;2023-03-01T03:10:39;2.60;;;2.40;;
10343;SDS011;5217;43.960;10.954;2023-03-01T03:13:09;2.37;;;2.23;;
10343;SDS011;5217;43.960;10.954;2023-03-01T03:15:40;2.03;;;1.93;;
10343;SDS011;5217;43.960;10.954;2023-03-01T03:18:10;2.20;;;2.10;;
10343;SDS011;5217;43.960;10.954;2023-03-01T03:20:42;2.17;;;2.07;;
10343;SDS011;5217;43.960;10.954;2023-03-01T03:23:11;2.30;;;2.20;;
10343;SDS011;5217;43.960;10.954;2023-03-01T03:25:39;2.60;;;2.40;;
10343;SDS011;5217;43.960;10.954;2023-03-01T03:28:08;2.37;;;2.23;;
10343;SDS011;5217;43.960;10.954;2023-03-01T03:30:38;2.37;;;2.20;;
10343;SDS011;5217;43.960;10.954;2023-03-01T03:33:09;2.70;;;2.50;;
10343;SDS011;5217;43.960;10.954;2023-03-01T03:35:40;2.63;;;2.43;;
10343;SDS011;5217;43.960;10.954;2023-03-01T03:38:11;2.50;;;2.33;;
10343;SDS011;5217;43.960;10.954;2023-03-01T03:40:44;2.00;;;1.90;;
10343;SDS011;5217;43.960;10.954;2023-03-01T03:43:14;2.07;;;1.97;;
10343;SDS011;5217;43.960;10.954;2023-03-01T03:45:45;1.90;;;1.80;;
10343;SDS011;5217;43.960;10.954;2023-03-01T03:48:14;2.00;;;1.90;;
10343;SDS011;5217;43.960;10.954;2023-03-01T03:50:47;1.90;;;1.80;;
10343;SDS011;5217;43.960;10.954;2023-03-01T03:53:16;1.80;;;1.70;;
10343;SDS011;5217;43.960;10.954;2023-03-01T03:55:46;1.97;;;1.87;;
10343;SDS011;5217;43.960;10.954;2023-03-01T03:58:15;1.93;;;1.83;;
10343;SDS011;5217;43.960;10.954;2023-03-01T04:00:48;1.67;;;1.57;;
10343;SDS011;5217;43.960;10.954;2023-03-01T04:03:18;1.80;;;1.70;;
10343;SDS011;5217;43.960;10.954;2023-03-01T04:05:48;1.70;;;1.60;;
10343;SDS011;5217;43.960;10.954;2023-03-01T04:08:17;1.77;;;1.50;;
10343;SDS011;5217;43.960;10.954;2023-03-01T04:10:48;2.00;;;1.90;;
10343;SDS011;5217;43.960;10.954;2023-03-01T04:13:18;2.17;;;1.63;;
10343;SDS011;5217;43.960;10.954;2023-03-01T04:15:50;1.83;;;1.73;;
10343;SDS011;5217;43.960;10.954;2023-03-01T04:18:19;1.80;;;1.70;;
10343;SDS011;5217;43.960;10.954;2023-03-01T04:20:49;1.70;;;1.60;;
10343;SDS011;5217;43.960;10.954;2023-03-01T04:23:21;1.70;;;1.60;;
10343;SDS011;5217;43.960;10.954;2023-03-01T04:25:50;1.50;;;1.40;;
10343;SDS011;5217;43.960;10.954;2023-03-01T04:28:22;1.60;;;1.50;;
10343;SDS011;5217;43.960;10.954;2023-03-01T04:30:53;1.60;;;1.50;;
10343;SDS011;5217;43.960;10.954;2023-03-01T04:33:23;1.60;;;1.50;;
10343;SDS011;5217;43.960;10.954;2023-03-01T04:35:53;1.70;;;1.60;;
10343;SDS011;5217;43.960;10.954;2023-03-01T04:38:21;2.40;;;1.60;;
10343;SDS011;5217;43.960;10.954;2023-03-01T04:40:49;1.77;;;1.67;;
10343;SDS011;5217;43.960;10.954;2023-03-01T04:43:18;1.70;;;1.60;;
10343;SDS011;5217;43.960;10.954;2023-03-01T04:45:46;1.90;;;1.80;;
10343;SDS011;5217;43.960;10.954;2023-03-01T04:48:16;1.63;;;1.53;;
10343;SDS011;5217;43.960;10.954;2023-03-01T04:50:44;1.97;;;1.70;;
10343;SDS011;5217;43.960;10.954;2023-03-01T04:53:12;1.70;;;1.60;;
10343;SDS011;5217;43.960;10.954;2023-03-01T04:55:41;6.07;;;1.90;;
10343;SDS011;5217;43.960;10.954;2023-03-01T04:58:09;1.93;;;1.83;;
10343;SDS011;5217;43.960;10.954;2023-03-01T05:00:38;1.80;;;1.70;;
10343;SDS011;5217;43.960;10.954;2023-03-01T05:03:07;1.80;;;1.70;;
10343;SDS011;5217;43.960;10.954;2023-03-01T05:05:37;1.63;;;1.53;;
10343;SDS011;5217;43.960;10.954;2023-03-01T05:08:06;1.87;;;1.77;;
10343;SDS011;5217;43.960;10.954;2023-03-01T05:10:44;1.70;;;1.60;;
10343;SDS011;5217;43.960;10.954;2023-03-01T05:13:13;1.90;;;1.80;;
10343;SDS011;5217;43.960;10.954;2023-03-01T05:15:47;1.77;;;1.67;;
10343;SDS011;5217;43.960;10.954;2023-03-01T05:18:16;1.77;;;1.67;;
10343;SDS011;5217;43.960;10.954;2023-03-01T05:20:46;1.90;;;1.80;;
10343;SDS011;5217;43.960;10.954;2023-03-01T05:23:14;1.90;;;1.80;;
10343;SDS011;5217;43.960;10.954;2023-03-01T05:25:43;1.80;;;1.67;;
10343;SDS011;5217;43.960;10.954;2023-03-01T05:28:11;1.63;;;1.53;;
10343;SDS011;5217;43.960;10.954;2023-03-01T05:30:40;1.70;;;1.60;;
10343;SDS011;5217;43.960;10.954;2023-03-01T05:33:09;1.60;;;1.50;;
10343;SDS011;5217;43.960;10.954;2023-03-01T05:35:40;1.83;;;1.73;;
10343;SDS011;5217;43.960;10.954;2023-03-01T05:38:11;2.23;;;1.70;;
10343;SDS011;5217;43.960;10.954;2023-03-01T05:40:40;1.83;;;1.70;;
10343;SDS011;5217;43.960;10.954;2023-03-01T05:43:10;1.80;;;1.70;;
10343;SDS011;5217;43.960;10.954;2023-03-01T05:45:39;1.57;;;1.47;;
10343;SDS011;5217;43.960;10.954;2023-03-01T05:48:09;1.97;;;1.50;;
10343;SDS011;5217;43.960;10.954;2023-03-01T05:50:39;1.70;;;1.60;;
10343;SDS011;5217;43.960;10.954;2023-03-01T05:53:09;1.70;;;1.60;;
10343;SDS011;5217;43.960;10.954;2023-03-01T05:55:41;1.87;;;1.77;;
10343;SDS011;5217;43.960;10.954;2023-03-01T05:58:11;1.80;;;1.70;;
10343;SDS011;5217;43.960;10.954;2023-03-01T06:00:41;2.00;;;1.90;;
10343;SDS011;5217;43.960;10.954;2023-03-01T06:03:10;1.90;;;1.80;;
10343;SDS011;5217;43.960;10.954;2023-03-01T06:05:40;2.20;;;2.10;;
10343;SDS011;5217;43.960;10.954;2023-03-01T06:08:09;2.53;;;2.37;;
10343;SDS011;5217;43.960;10.954;2023-03-01T06:10:39;2.83;;;2.43;;
10343;SDS011;5217;43.960;10.954;2023-03-01T06:13:08;2.40;;;2.30;;
10343;SDS011;5217;43.960;10.954;2023-03-01T06:15:37;2.70;;;2.50;;
10343;SDS011;5217;43.960;10.954;2023-03-01T06:18:05;2.77;;;2.57;;
10343;SDS011;5217;43.960;10.954;2023-03-01T06:20:33;2.77;;;2.57;;
10343;SDS011;5217;43.960;10.954;2023-03-01T06:23:02;2.63;;;2.47;;
10343;SDS011;5217;43.960;10.954;2023-03-01T06:25:32;2.40;;;2.20;;
10343;SDS011;5217;43.960;10.954;2023-03-01T06:28:00;3.00;;;2.80;;
10343;SDS011;5217;43.960;10.954;2023-03-01T06:30:28;2.87;;;2.67;;
10343;SDS011;5217;43.960;10.954;2023-03-01T06:32:57;2.90;;;2.70;;
10343;SDS011;5217;43.960;10.954;2023-03-01T06:35:27;2.77;;;2.30;;
10343;SDS011;5217;43.960;10.954;2023-03-01T06:37:57;2.90;;;2.70;;
10343;SDS011;5217;43.960;10.954;2023-03-01T06:40:27;2.90;;;2.70;;
10343;SDS011;5217;43.960;10.954;2023-03-01T06:42:58;3.00;;;2.80;;
10343;SDS011;5217;43.960;10.954;2023-03-01T06:45:27;2.70;;;2.60;;
10343;SDS011;5217;43.960;10.954;2023-03-01T06:48:01;2.60;;;2.40;;
10343;SDS011;5217;43.960;10.954;2023-03-01T06:50:30;2.90;;;2.70;;
10343;SDS011;5217;43.960;10.954;2023-03-01T06:52:59;2.80;;;2.60;;
10343;SDS011;5217;43.960;10.954;2023-03-01T06:55:27;2.30;;;2.20;;
10343;SDS011;5217;43.960;10.954;2023-03-01T06:57:56;2.83;;;2.37;;
10343;SDS011;5217;43.960;10.954;2023-03-01T07:00:27;2.40;;;2.20;;
10343;SDS011;5217;43.960;10.954;2023-03-01T07:02:59;2.20;;;2.10;;
10343;SDS011;5217;43.960;10.954;2023-03-01T07:05:29;2.20;;;2.10;;
10343;SDS011;5217;43.960;10.954;2023-03-01T07:07:58;2.20;;;2.10;;
10343;SDS011;5217;43.960;10.954;2023-03-01T07:10:26;2.20;;;2.10;;
10343;SDS011;5217;43.960;10.954;2023-03-01T07:12:55;2.00;;;1.90;;
10343;SDS011;5217;43.960;10.954;2023-03-01T07:15:25;2.90;;;2.70;;
10343;SDS011;5217;43.960;10.954;2023-03-01T07:17:55;2.17;;;2.07;;
10343;SDS011;5217;43.960;10.954;2023-03-01T07:20:24;4.63;;;4.23;;
10343;SDS011;5217;43.960;10.954;2023-03-01T07:22:53;10.27;;;9.17;;
10343;SDS011;5217;43.960;10.954;2023-03-01T07:25:22;8.10;;;7.37;;
10343;SDS011;5217;43.960;10.954;2023-03-01T07:27:51;4.33;;;3.93;;
10343;SDS011;5217;43.960;10.954;2023-03-01T07:30:20;3.30;;;3.10;;
10343;SDS011;5217;43.960;10.954;2023-03-01T07:32:53;2.50;;;2.30;;
10343;SDS011;5217;43.960;10.954;2023-03-01T07:35:23;1.97;;;1.87;;
10343;SDS011;5217;43.960;10.954;2023-03-01T07:37:52;2.07;;;1.97;;
10343;SDS011;5217;43.960;10.954;2023-03-01T07:40:21;1.90;;;1.80;;
10343;SDS011;5217;43.960;10.954;2023-03-01T07:42:49;1.97;;;1.87;;
10343;SDS011;5217;43.960;10.954;2023-03-01T07:45:22;2.10;;;2.00;;
10343;SDS011;5217;43.960;10.954;2023-03-01T07:47:51;2.00;;;1.70;;
10343;SDS011;5217;43.960;10.954;2023-03-01T07:50:22;2.00;;;1.90;;
10343;SDS011;5217;43.960;10.954;2023-03-01T07:52:50;1.63;;;1.53;;
10343;SDS011;5217;43.960;10.954;2023-03-01T07:55:18;1.90;;;1.40;;
10343;SDS011;5217;43.960;10.954;2023-03-01T07:57:47;1.20;;;1.20;;
10343;SDS011;5217;43.960;10.954;2023-03-01T08:00:16;1.70;;;1.60;;
10343;SDS011;5217;43.960;10.954;2023-03-01T08:02:45;1.70;;;1.60;;
10343;SDS011;5217;43.960;10.954;2023-03-01T08:05:14;1.50;;;1.40;;
10343;SDS011;5217;43.960;10.954;2023-03-01T08:07:43;1.97;;;1.80;;
10343;SDS011;5217;43.960;10.954;2023-03-01T08:10:12;2.13;;;2.03;;
10343;SDS011;5217;43.960;10.954;2023-03-01T08:12:40;2.53;;;2.33;;
10343;SDS011;5217;43.960;10.954;2023-03-01T08:15:09;2.10;;;2.00;;
10343;SDS011;5217;43.960;10.954;2023-03-01T08:17:38;2.40;;;2.30;;
10343;SDS011;5217;43.960;10.954;2023-03-01T08:20:06;3.87;;;3.57;;
10343;SDS011;5217;43.960;10.954;2023-03-01T08:22:40;4.07;;;3.77;;
10343;SDS011;5217;43.960;10.954;2023-03-01T08:25:08;2.50;;;2.30;;
10343;SDS011;5217;43.960;10.954;2023-03-01T08:27:37;3.63;;;3.33;;
10343;SDS011;5217;43.960;10.954;2023-03-01T08:30:06;3.87;;;3.57;;
10343;SDS011;5217;43.960;10.954;2023-03-01T08:32:36;3.97;;;3.67;;
10343;SDS011;5217;43.960;10.954;2023-03-01T08:35:05;3.70;;;3.40;;
10343;SDS011;5217;43.960;10.954;2023-03-01T08:37:34;3.60;;;3.33;;
10343;SDS011;5217;43.960;10.954;2023-03-01T08:40:05;4.00;;;3.70;;
10343;SDS011;5217;43.960;10.954;2023-03-01T08:42:36;3.87;;;3.57;;
10343;SDS011;5217;43.960;10.954;2023-03-01T08:45:05;4.03;;;3.73;;
10343;SDS011;5217;43.960;10.954;2023-03-01T08:47:34;7.60;;;5.73;;
10343;SDS011;5217;43.960;10.954;2023-03-01T08:50:03;6.53;;;5.20;;
10343;SDS011;5217;43.960;10.954;2023-03-01T08:52:32;5.47;;;4.97;;
10343;SDS011;5217;43.960;10.954;2023-03-01T08:55:01;10.23;;;8.93;;
10343;SDS011;5217;43.960;10.954;2023-03-01T08:57:31;15.90;;;12.53;;
10343;SDS011;5217;43.960;10.954;2023-03-01T08:59:59;12.77;;;11.43;;
10343;SDS011;5217;43.960;10.954;2023-03-01T09:02:27;10.70;;;9.60;;
10343;SDS011;5217;43.960;10.954;2023-03-01T09:04:56;7.97;;;7.27;;
10343;SDS011;5217;43.960;10.954;2023-03-01T09:07:24;6.80;;;6.20;;
10343;SDS011;5217;43.960;10.954;2023-03-01T09:09:55;5.97;;;5.47;;
10343;SDS011;5217;43.960;10.954;2023-03-01T09:12:23;6.33;;;5.20;;
10343;SDS011;5217;43.960;10.954;2023-03-01T09:14:53;4.60;;;4.30;;
10343;SDS011;5217;43.960;10.954;2023-03-01T09:17:22;4.67;;;4.30;;
10343;SDS011;5217;43.960;10.954;2023-03-01T09:19:50;4.83;;;3.63;;
10343;SDS011;5217;43.960;10.954;2023-03-01T09:22:18;4.43;;;4.07;;
10343;SDS011;5217;43.960;10.954;2023-03-01T09:24:46;7.20;;;6.50;;
10343;SDS011;5217;43.960;10.954;2023-03-01T09:27:15;14.03;;;11.90;;
10343;SDS011;5217;43.960;10.954;2023-03-01T09:29:45;6.90;;;6.20;;
10343;SDS011;5217;43.960;10.954;2023-03-01T09:32:14;6.17;;;5.57;;
10343;SDS011;5217;43.960;10.954;2023-03-01T09:34:43;5.37;;;4.97;;
10343;SDS011;5217;43.960;10.954;2023-03-01T09:37:31;10.00;;;8.40;;
10343;SDS011;5217;43.960;10.954;2023-03-01T09:40:01;16.67;;;13.57;;
10343;SDS011;5217;43.960;10.954;2023-03-01T09:42:32;12.43;;;10.30;;
10343;SDS011;5217;43.960;10.954;2023-03-01T09:45:03;10.90;;;9.00;;
10343;SDS011;5217;43.960;10.954;2023-03-01T09:47:36;7.53;;;6.83;;
10343;SDS011;5217;43.960;10.954;2023-03-01T09:50:05;5.77;;;5.27;;
10343;SDS011;5217;43.960;10.954;2023-03-01T09:52:39;5.90;;;5.30;;
10343;SDS011;5217;43.960;10.954;2023-03-01T09:55:11;3.60;;;3.30;;
10343;SDS011;5217;43.960;10.954;2023-03-01T09:57:43;5.07;;;4.60;;
10343;SDS011;5217;43.960;10.954;2023-03-01T10:00:18;3.83;;;3.53;;
10343;SDS011;5217;43.960;10.954;2023-03-01T10:03:01;3.53;;;3.23;;
10343;SDS011;5217;43.960;10.954;2023-03-01T10:05:40;2.57;;;2.37;;
10343;SDS011;5217;43.960;10.954;2023-03-01T10:08:26;4.33;;;3.07;;
10343;SDS011;5217;43.960;10.954;2023-03-01T10:10:57;2.97;;;2.67;;
10343;SDS011;5217;43.960;10.954;2023-03-01T10:13:28;2.47;;;2.20;;
10343;SDS011;5217;43.960;10.954;2023-03-01T10:16:03;2.10;;;2.00;;
10343;SDS011;5217;43.960;10.954;2023-03-01T10:18:39;2.20;;;2.10;;
10343;SDS011;5217;43.960;10.954;2023-03-01T10:21:12;2.97;;;2.77;;
10343;SDS011;5217;43.960;10.954;2023-03-01T10:23:43;3.10;;;2.90;;
10343;SDS011;5217;43.960;10.954;2023-03-01T10:26:24;2.07;;;1.97;;
10343;SDS011;5217;43.960;10.954;2023-03-01T10:29:03;2.33;;;2.20;;
10343;SDS011;5217;43.960;10.954;2023-03-01T10:31:41;2.60;;;2.40;;
10343;SDS011;5217;43.960;10.954;2023-03-01T10:34:14;2.67;;;2.47;;
10343;SDS011;5217;43.960;10.954;2023-03-01T10:36:44;4.90;;;2.50;;
10343;SDS011;5217;43.960;10.954;2023-03-01T10:39:16;3.40;;;3.10;;
10343;SDS011;5217;43.960;10.954;2023-03-01T10:41:57;4.33;;;3.93;;
10343;SDS011;5217;43.960;10.954;2023-03-01T10:44:43;3.50;;;3.20;;
10343;SDS011;5217;43.960;10.954;2023-03-01T10:47:14;2.40;;;2.30;;
10343;SDS011;5217;43.960;10.954;2023-03-01T10:49:55;5.13;;;4.73;;
10343;SDS011;5217;43.960;10.954;2023-03-01T10:52:29;6.70;;;6.03;;
10343;SDS011;5217;43.960;10.954;2023-03-01T10:55:01;6.43;;;5.83;;
10343;SDS011;5217;43.960;10.954;2023-03-01T10:57:46;3.80;;;3.50;;
10343;SDS011;5217;43.960;10.954;2023-03-01T11:00:22;3.47;;;3.17;;
10343;SDS011;5217;43.960;10.954;2023-03-01T11:05:51;2.97;;;2.77;;
10343;SDS011;5217;43.960;10.954;2023-03-01T11:08:33;3.00;;;2.80;;
10343;SDS011;5217;43.960;10.954;2023-03-01T11:11:21;2.83;;;2.63;;
10343;SDS011;5217;43.960;10.954;2023-03-01T11:13:53;2.77;;;2.57;;
10343;SDS011;5217;43.960;10.954;2023-03-01T11:16:28;2.93;;;2.73;;
10343;SDS011;5217;43.960;10.954;2023-03-01T11:19:13;3.00;;;2.80;;
10343;SDS011;5217;43.960;10.954;2023-03-01T11:21:47;2.63;;;2.43;;
10343;SDS011;5217;43.960;10.954;2023-03-01T11:24:23;2.70;;;2.50;;
10343;SDS011;5217;43.960;10.954;2023-03-01T11:26:57;2.70;;;2.50;;
10343;SDS011;5217;43.960;10.954;2023-03-01T11:29:32;2.47;;;2.37;;
10343;SDS011;5217;43.960;10.954;2023-03-01T11:32:14;1.90;;;1.80;;
10343;SDS011;5217;43.960;10.954;2023-03-01T11:34:43;2.20;;;2.10;;
10343;SDS011;5217;43.960;10.954;2023-03-01T11:37:21;2.40;;;2.20;;
10343;SDS011;5217;43.960;10.954;2023-03-01T11:39:58;3.00;;;2.70;;
10343;SDS011;5217;43.960;10.954;2023-03-01T11:42:37;3.77;;;3.40;;
10343;SDS011;5217;43.960;10.954;2023-03-01T11:45:13;4.33;;;3.93;;
10343;SDS011;5217;43.960;10.954;2023-03-01T11:47:46;4.40;;;4.00;;
10343;SDS011;5217;43.960;10.954;2023-03-01T11:50:29;5.77;;;4.53;;
10343;SDS011;5217;43.960;10.954;2023-03-01T11:56:05;8.67;;;7.77;;
10343;SDS011;5217;43.960;10.954;2023-03-01T11:59:00;7.17;;;6.47;;
10343;SDS011;5217;43.960;10.954;2023-03-01T12:01:43;5.70;;;5.10;;
10343;SDS011;5217;43.960;10.954;2023-03-01T12:04:28;5.30;;;4.80;;
10343;SDS011;5217;43.960;10.954;2023-03-01T12:07:17;2.90;;;2.70;;
10343;SDS011;5217;43.960;10.954;2023-03-01T12:10:08;2.50;;;2.40;;
10343;SDS011;5217;43.960;10.954;2023-03-01T12:13:03;3.03;;;2.83;;
10343;SDS011;5217;43.960;10.954;2023-03-01T12:15:48;2.50;;;2.30;;
10343;SDS011;5217;43.960;10.954;2023-03-01T12:18:40;2.70;;;2.50;;
10343;SDS011;5217;43.960;10.954;2023-03-01T12:21:36;3.10;;;2.70;;
10343;SDS011;5217;43.960;10.954;2023-03-01T12:27:38;2.80;;;2.60;;
10343;SDS011;5217;43.960;10.954;2023-03-01T12:30:27;3.00;;;2.80;;
10343;SDS011;5217;43.960;10.954;2023-03-01T12:33:13;3.93;;;3.63;;
10343;SDS011;5217;43.960;10.954;2023-03-01T12:38:41;5.43;;;4.93;;
10343;SDS011;5217;43.960;10.954;2023-03-01T12:44:15;5.10;;;4.67;;
10343;SDS011;5217;43.960;10.954;2023-03-01T12:47:00;4.80;;;4.43;;
10343;SDS011;5217;43.960;10.954;2023-03-01T12:49:39;4.83;;;4.43;;
10343;SDS011;5217;43.960;10.954;2023-03-01T12:52:11;4.90;;;4.43;;
10343;SDS011;5217;43.960;10.954;2023-03-01T12:54:42;4.90;;;4.50;;
10343;SDS011;5217;43.960;10.954;2023-03-01T12:57:13;6.97;;;6.30;;
10343;SDS011;5217;43.960;10.954;2023-03-01T12:59:50;5.87;;;5.30;;
10343;SDS011;5217;43.960;10.954;2023-03-01T13:02:30;11.10;;;10.00;;
10343;SDS011;5217;43.960;10.954;2023-03-01T13:05:07;10.60;;;9.70;;
10343;SDS011;5217;43.960;10.954;2023-03-01T13:07:53;6.07;;;5.47;;
10343;SDS011;5217;43.960;10.954;2023-03-01T13:10:26;5.03;;;4.63;;
10343;SDS011;5217;43.960;10.954;2023-03-01T13:13:02;3.77;;;3.47;;
10343;SDS011;5217;43.960;10.954;2023-03-01T13:15:40;4.37;;;4.00;;
10343;SDS011;5217;43.960;10.954;2023-03-01T13:18:28;5.77;;;4.90;;
10343;SDS011;5217;43.960;10.954;2023-03-01T13:20:58;6.70;;;6.10;;
10343;SDS011;5217;43.960;10.954;2023-03-01T13:23:30;4.60;;;4.27;;
10343;SDS011;5217;43.960;10.954;2023-03-01T13:26:11;4.30;;;3.90;;
10343;SDS011;5217;43.960;10.954;2023-03-01T13:28:46;3.20;;;2.90;;
10343;SDS011;5217;43.960;10.954;2023-03-01T13:34:45;4.07;;;3.67;;
10343;SDS011;5217;43.960;10.954;2023-03-01T13:40:02;3.50;;;3.20;;
10343;SDS011;5217;43.960;10.954;2023-03-01T13:42:50;3.10;;;2.90;;
10343;SDS011;5217;43.960;10.954;2023-03-01T13:45:33;4.00;;;3.60;;
10343;SDS011;5217;43.960;10.954;2023-03-01T13:48:08;4.67;;;4.27;;
10343;SDS011;5217;43.960;10.954;2023-03-01T13:50:45;7.47;;;6.63;;
10343;SDS011;5217;43.960;10.954;2023-03-01T13:53:18;7.50;;;6.80;;
10343;SDS011;5217;43.960;10.954;2023-03-01T13:55:48;5.63;;;5.13;;
10343;SDS011;5217;43.960;10.954;2023-03-01T13:58:21;3.93;;;3.63;;
10343;SDS011;5217;43.960;10.954;2023-03-01T14:00:55;3.30;;;3.00;;
10343;SDS011;5217;43.960;10.954;2023-03-01T14:03:26;4.43;;;4.03;;
10343;SDS011;5217;43.960;10.954;2023-03-01T14:06:05;11.87;;;10.67;;
10343;SDS011;5217;43.960;10.954;2023-03-01T14:08:42;6.70;;;6.00;;
10343;SDS011;5217;43.960;10.954;2023-03-01T14:11:25;6.57;;;5.63;;
10343;SDS011;5217;43.960;10.954;2023-03-01T14:14:22;7.30;;;6.57;;
10343;SDS011;5217;43.960;10.954;2023-03-01T14:17:11;4.57;;;4.17;;
10343;SDS011;5217;43.960;10.954;2023-03-01T14:20:00;4.10;;;3.80;;
10343;SDS011;5217;43.960;10.954;2023-03-01T14:22:33;3.83;;;3.30;;
10343;SDS011;5217;43.960;10.954;2023-03-01T14:25:05;11.20;;;9.73;;
10343;SDS011;5217;43.960;10.954;2023-03-01T14:27:44;10.47;;;9.37;;
10343;SDS011;5217;43.960;10.954;2023-03-01T14:30:21;4.80;;;4.50;;
10343;SDS011;5217;43.960;10.954;2023-03-01T14:32:53;4.63;;;4.23;;
10343;SDS011;5217;43.960;10.954;2023-03-01T14:35:23;4.10;;;3.80;;
10343;SDS011;5217;43.960;10.954;2023-03-01T14:37:54;4.00;;;3.70;;
10343;SDS011;5217;43.960;10.954;2023-03-01T14:40:24;3.67;;;3.40;;
10343;SDS011;5217;43.960;10.954;2023-03-01T14:42:55;3.30;;;3.10;;
10343;SDS011;5217;43.960;10.954;2023-03-01T14:45:26;3.43;;;3.13;;
10343;SDS011;5217;43.960;10.954;2023-03-01T14:47:58;3.17;;;2.97;;
10343;SDS011;5217;43.960;10.954;2023-03-01T14:50:29;2.97;;;2.73;;
10343;SDS011;5217;43.960;10.954;2023-03-01T14:53:01;2.97;;;2.77;;
10343;SDS011;5217;43.960;10.954;2023-03-01T14:55:31;3.20;;;3.00;;
10343;SDS011;5217;43.960;10.954;2023-03-01T14:58:03;4.00;;;3.70;;
10343;SDS011;5217;43.960;10.954;2023-03-01T15:00:32;3.70;;;3.40;;
10343;SDS011;5217;43.960;10.954;2023-03-01T15:03:04;2.40;;;2.20;;
10343;SDS011;5217;43.960;10.954;2023-03-01T15:05:40;3.30;;;3.00;;
10343;SDS011;5217;43.960;10.954;2023-03-01T15:08:16;2.90;;;2.70;;
10343;SDS011;5217;43.960;10.954;2023-03-01T15:10:55;4.07;;;3.77;;
10343;SDS011;5217;43.960;10.954;2023-03-01T15:13:28;4.20;;;3.90;;
10343;SDS011;5217;43.960;10.954;2023-03-01T15:16:06;4.47;;;4.13;;
10343;SDS011;5217;43.960;10.954;2023-03-01T15:18:36;6.40;;;5.90;;
10343;SDS011;5217;43.960;10.954;2023-03-01T15:21:14;6.80;;;6.20;;
10343;SDS011;5217;43.960;10.954;2023-03-01T15:23:49;8.10;;;7.40;;
10343;SDS011;5217;43.960;10.954;2023-03-01T15:26:24;6.37;;;5.87;;
10343;SDS011;5217;43.960;10.954;2023-03-01T15:28:56;4.73;;;4.33;;
10343;SDS011;5217;43.960;10.954;2023-03-01T15:31:27;4.20;;;3.90;;
10343;SDS011;5217;43.960;10.954;2023-03-01T15:34:08;5.50;;;5.10;;
10343;SDS011;5217;43.960;10.954;2023-03-01T15:36:40;6.53;;;6.03;;
10343;SDS011;5217;43.960;10.954;2023-03-01T15:39:25;5.53;;;4.93;;
10343;SDS011;5217;43.960;10.954;2023-03-01T15:42:04;4.53;;;4.23;;